Terminal Aerodrome Forecast
Issued by NWS

Home | Current Version | Previous Version | Text Only | Print | Product List | Glossary Off
Versions: 1 2 3 4 5 6 7 8 9 10 11 12 13 14 15 16 17 18

936
FTUS43 KBIS 251725
TAFMOT
TAF
KMOT 251725Z 2518/2618 30010G16KT P6SM BKN050
     FM252100 30010G16KT P6SM SCT070
     FM260200 27006KT P6SM FEW080
     FM260900 23006KT P6SM SKC=

USA.gov is the U.S. government's official web portal to all federal, state and local government web resources and services.